createdAt,value
2023-09-24T00:01:56.217Z,6.47
2023-09-24T00:03:58.474Z,6.57
2023-09-24T00:06:08.695Z,7.45
2023-09-24T00:08:11.901Z,6.68
2023-09-24T00:10:13.611Z,7.53
2023-09-24T00:12:15.464Z,7.43
2023-09-24T00:14:17.332Z,6.72
2023-09-24T00:16:19.123Z,7.43
2023-09-24T00:18:21.491Z,6.68
2023-09-24T00:20:23.612Z,6.90
2023-09-24T00:22:27.783Z,6.68
2023-09-24T00:24:29.872Z,6.78
2023-09-24T00:26:31.871Z,7.00
2023-09-24T00:28:33.799Z,5.97
2023-09-24T00:30:37.802Z,6.70
2023-09-24T00:32:39.619Z,6.47
2023-09-24T00:34:41.600Z,6.03
2023-09-24T00:36:43.258Z,6.32
2023-09-24T00:38:45.169Z,6.75
2023-09-24T00:40:46.852Z,6.20
2023-09-24T00:42:51.009Z,7.10
2023-09-24T00:44:53.216Z,6.32
2023-09-24T00:46:57.304Z,6.47
2023-09-24T00:48:59.840Z,7.00
2023-09-24T00:51:05.914Z,7.20
2023-09-24T00:53:07.657Z,6.10
2023-09-24T00:55:10.480Z,6.40
2023-09-24T00:57:12.245Z,6.63
2023-09-24T00:59:14.170Z,6.05
2023-09-24T01:01:17.544Z,7.00
2023-09-24T01:03:20.311Z,6.15
2023-09-24T01:05:23.566Z,5.53
2023-09-24T01:07:25.683Z,6.10
2023-09-24T01:09:27.714Z,6.20
2023-09-24T01:11:32.710Z,6.05
2023-09-24T01:13:41.560Z,6.70
2023-09-24T01:15:48.378Z,7.25
2023-09-24T01:17:50.937Z,7.03
2023-09-24T01:19:57.895Z,6.43
2023-09-24T01:22:02.393Z,6.70
2023-09-24T01:24:04.736Z,7.32
2023-09-24T01:26:06.688Z,5.90
2023-09-24T01:28:09.143Z,6.50
2023-09-24T01:30:11.423Z,6.18
2023-09-24T01:32:13.250Z,6.75
2023-09-24T01:34:15.482Z,6.28
2023-09-24T01:36:18.989Z,7.07
2023-09-24T01:40:25.463Z,6.53
2023-09-24T01:42:27.735Z,6.80
2023-09-24T01:44:31.432Z,6.72
2023-09-24T01:48:36.823Z,6.18
2023-09-24T01:50:42.934Z,6.38
2023-09-24T01:52:46.873Z,7.18
2023-09-24T01:54:48.753Z,6.80
2023-09-24T01:56:50.644Z,6.55
2023-09-24T01:58:53.592Z,6.32
2023-09-24T02:00:55.420Z,6.50
2023-09-24T02:03:02.579Z,6.50
2023-09-24T02:05:07.492Z,5.43
2023-09-24T02:07:09.772Z,6.82
2023-09-24T02:09:15.363Z,6.88
2023-09-24T02:11:17.154Z,6.50
2023-09-24T02:13:21.647Z,6.65
2023-09-24T02:15:24.393Z,6.40
2023-09-24T02:17:27.876Z,6.50
2023-09-24T02:21:32.624Z,8.68
2023-09-24T02:23:36.105Z,7.65
2023-09-24T02:25:38.644Z,7.47
2023-09-24T02:27:41.769Z,7.30
2023-09-24T02:29:43.610Z,7.07
2023-09-24T02:31:45.663Z,6.82
2023-09-24T02:33:48.129Z,6.60
2023-09-24T02:35:50.653Z,6.65
2023-09-24T02:37:54.963Z,6.75
2023-09-24T02:39:57.006Z,7.15
2023-09-24T02:41:58.823Z,7.55
2023-09-24T02:44:02.965Z,6.65
2023-09-24T02:46:07.066Z,6.18
2023-09-24T02:48:09.435Z,7.82
2023-09-24T02:50:14.964Z,6.63
2023-09-24T02:52:16.931Z,7.60
2023-09-24T02:54:19.549Z,6.63
2023-09-24T02:56:21.334Z,6.65
2023-09-24T02:58:23.094Z,6.30
2023-09-24T03:00:36.329Z,7.32
2023-09-24T03:02:39.152Z,6.68
2023-09-24T03:04:42.008Z,6.80
2023-09-24T03:06:44.686Z,7.50
2023-09-24T03:08:50.665Z,6.90
2023-09-24T03:10:53.112Z,7.10
2023-09-24T03:12:55.651Z,6.85
2023-09-24T03:14:57.548Z,8.13
2023-09-24T03:16:59.545Z,6.32
2023-09-24T03:19:06.140Z,7.30
2023-09-24T03:21:13.381Z,6.72
2023-09-24T03:23:15.228Z,6.80
2023-09-24T03:25:18.706Z,5.88
2023-09-24T03:29:22.715Z,6.22
2023-09-24T03:31:24.569Z,5.95
2023-09-24T03:33:28.089Z,6.25
2023-09-24T03:35:30.114Z,7.43
2023-09-24T03:37:32.698Z,6.28
2023-09-24T03:39:34.510Z,7.63
2023-09-24T03:41:36.761Z,6.50
2023-09-24T03:43:38.556Z,7.68
2023-09-24T03:45:40.689Z,6.55
2023-09-24T03:47:43.218Z,7.55
2023-09-24T03:49:45.101Z,7.10
2023-09-24T03:51:46.896Z,6.40
2023-09-24T03:53:48.822Z,6.25
2023-09-24T03:55:50.688Z,7.63
2023-09-24T03:57:52.509Z,6.97
2023-09-24T03:59:56.222Z,7.78
2023-09-24T04:01:57.941Z,6.63
2023-09-24T04:04:01.541Z,6.38
2023-09-24T04:06:11.133Z,7.47
2023-09-24T04:08:12.879Z,6.72
2023-09-24T04:10:15.938Z,6.60
2023-09-24T04:12:18.104Z,7.28
2023-09-24T04:14:21.363Z,7.40
2023-09-24T04:16:23.784Z,7.85
2023-09-24T04:18:28.297Z,7.97
2023-09-24T04:20:34.157Z,7.50
2023-09-24T04:22:36.015Z,7.95
2023-09-24T04:24:37.755Z,7.97
2023-09-24T04:26:39.591Z,7.55
2023-09-24T04:28:41.455Z,6.80
2023-09-24T04:30:44.753Z,6.93
2023-09-24T04:32:53.209Z,6.93
2023-09-24T04:34:56.638Z,7.15
2023-09-24T04:36:58.548Z,7.07
2023-09-24T04:39:00.691Z,7.28
2023-09-24T04:41:03.072Z,8.40
2023-09-24T04:43:07.213Z,7.55
2023-09-24T04:45:13.051Z,6.30
2023-09-24T04:47:14.727Z,6.75
2023-09-24T04:49:16.545Z,7.13
2023-09-24T04:51:18.447Z,6.93
2023-09-24T04:53:20.226Z,7.53
2023-09-24T04:55:23.112Z,6.75
2023-09-24T04:57:26.493Z,6.70
2023-09-24T04:59:29.069Z,7.65
2023-09-24T05:01:31.200Z,7.20
2023-09-24T05:03:36.154Z,6.82
2023-09-24T05:05:43.272Z,7.22
2023-09-24T05:07:45.308Z,7.75
2023-09-24T05:09:47.174Z,6.93
2023-09-24T05:11:48.995Z,6.72
2023-09-24T05:13:50.862Z,6.78
2023-09-24T05:15:55.299Z,7.15
2023-09-24T05:17:57.921Z,8.35
2023-09-24T05:20:00.122Z,7.83
2023-09-24T05:22:01.842Z,7.72
2023-09-24T05:24:05.048Z,7.65
2023-09-24T05:26:12.507Z,7.35
2023-09-24T05:28:15.052Z,7.72
2023-09-24T05:30:16.961Z,6.53
2023-09-24T05:32:18.792Z,7.18
2023-09-24T05:34:20.569Z,7.45
2023-09-24T05:36:24.145Z,7.78
2023-09-24T05:42:32.409Z,7.13
2023-09-24T05:44:35.051Z,7.95
2023-09-24T05:46:36.877Z,8.00
2023-09-24T05:48:38.848Z,6.72
2023-09-24T05:50:40.710Z,7.00
2023-09-24T05:52:42.708Z,6.40
2023-09-24T05:54:44.487Z,7.43
2023-09-24T05:56:47.847Z,6.68
2023-09-24T05:59:08.407Z,6.55
2023-09-24T06:01:20.141Z,6.78
2023-09-24T06:03:22.076Z,6.10
2023-09-24T06:05:24.047Z,6.32
2023-09-24T06:07:29.338Z,6.13
2023-09-24T06:09:31.556Z,7.25
2023-09-24T06:11:36.937Z,6.68
2023-09-24T06:13:40.268Z,7.45
2023-09-24T06:15:45.354Z,6.50
2023-09-24T06:17:48.368Z,7.35
2023-09-24T06:19:50.945Z,6.88
2023-09-24T06:21:52.974Z,6.22
2023-09-24T06:23:55.663Z,6.70
2023-09-24T06:25:58.817Z,6.93
2023-09-24T06:28:03.170Z,7.10
2023-09-24T06:30:07.038Z,7.65
2023-09-24T06:32:08.840Z,6.22
2023-09-24T06:34:10.754Z,6.97
2023-09-24T06:36:12.610Z,6.47
2023-09-24T06:38:15.160Z,6.63
2023-09-24T06:40:16.941Z,6.43
2023-09-24T06:42:20.305Z,5.55
2023-09-24T06:44:24.345Z,6.27
2023-09-24T06:46:26.931Z,6.97
2023-09-24T06:48:30.328Z,6.88
2023-09-24T06:50:36.273Z,6.90
2023-09-24T06:52:43.367Z,7.07
2023-09-24T06:54:45.136Z,6.93
2023-09-24T06:56:46.981Z,6.72
2023-09-24T06:58:48.753Z,6.32
2023-09-24T07:00:51.731Z,6.97
2023-09-24T07:02:53.704Z,6.90
2023-09-24T07:04:55.674Z,6.35
2023-09-24T07:06:57.690Z,6.10
2023-09-24T07:09:03.764Z,7.38
2023-09-24T07:11:25.821Z,6.38
2023-09-24T07:13:27.552Z,7.03
2023-09-24T07:15:31.628Z,6.15
2023-09-24T07:17:34.630Z,7.05
2023-09-24T07:19:39.518Z,6.95
2023-09-24T07:21:41.234Z,6.00
2023-09-24T07:23:43.325Z,6.40
2023-09-24T07:25:45.123Z,6.50
2023-09-24T07:27:48.438Z,7.18
2023-09-24T07:29:50.315Z,7.47
2023-09-24T07:31:52.589Z,7.38
2023-09-24T07:33:55.329Z,7.20
2023-09-24T07:35:57.239Z,6.78
2023-09-24T07:37:59.296Z,7.28
2023-09-24T07:40:03.149Z,6.22
2023-09-24T07:42:05.186Z,6.85
2023-09-24T07:44:07.289Z,7.05
2023-09-24T07:46:13.808Z,7.63
2023-09-24T07:48:17.004Z,7.22
2023-09-24T07:50:21.487Z,7.38
2023-09-24T07:52:23.387Z,6.75
2023-09-24T07:54:25.316Z,7.72
2023-09-24T07:56:27.096Z,7.50
2023-09-24T07:58:33.447Z,7.80
2023-09-24T08:00:35.767Z,7.55
2023-09-24T08:02:40.428Z,7.43
2023-09-24T08:04:42.718Z,7.20
2023-09-24T08:06:44.634Z,7.10
2023-09-24T08:08:55.033Z,6.80
2023-09-24T08:11:02.986Z,7.18
2023-09-24T08:13:06.727Z,6.85
2023-09-24T08:15:08.831Z,6.80
2023-09-24T08:17:11.909Z,6.72
2023-09-24T08:19:13.789Z,6.85
2023-09-24T08:21:15.556Z,7.50
2023-09-24T08:23:19.915Z,6.80
2023-09-24T08:25:21.837Z,6.40
2023-09-24T08:27:23.627Z,6.90
2023-09-24T08:29:25.475Z,7.15
2023-09-24T08:31:27.313Z,7.47
2023-09-24T08:33:29.094Z,6.30
2023-09-24T08:35:31.030Z,7.25
2023-09-24T08:37:34.304Z,7.60
2023-09-24T08:39:37.070Z,6.80
2023-09-24T08:41:44.503Z,6.95
2023-09-24T08:43:47.190Z,6.45
2023-09-24T08:45:49.371Z,6.30
2023-09-24T08:47:51.515Z,6.85
2023-09-24T08:49:54.987Z,6.97
2023-09-24T08:54:02.017Z,6.75
2023-09-24T08:56:05.065Z,6.68
2023-09-24T08:58:06.741Z,6.88
2023-09-24T09:00:16.291Z,5.97
2023-09-24T09:02:18.288Z,6.05
2023-09-24T09:04:20.246Z,5.65
2023-09-24T09:06:36.840Z,6.50
2023-09-24T09:08:55.952Z,6.55
2023-09-24T09:11:01.198Z,5.93
2023-09-24T09:13:03.751Z,6.00
2023-09-24T09:15:17.180Z,6.30
2023-09-24T09:17:19.614Z,5.90
2023-09-24T09:19:23.308Z,6.68
2023-09-24T09:21:27.211Z,6.25
2023-09-24T09:23:39.736Z,6.07
2023-09-24T09:25:53.422Z,6.43
2023-09-24T09:27:55.580Z,6.40
2023-09-24T09:30:17.409Z,6.10
2023-09-24T09:32:19.199Z,6.75
2023-09-24T09:34:22.095Z,6.43
2023-09-24T09:36:31.769Z,6.97
2023-09-24T09:38:33.512Z,6.40
2023-09-24T09:40:36.358Z,5.85
2023-09-24T09:42:40.390Z,6.15
2023-09-24T09:44:42.380Z,7.38
2023-09-24T09:46:48.378Z,6.00
2023-09-24T09:48:57.344Z,6.90
2023-09-24T09:51:03.181Z,6.45
2023-09-24T09:53:09.156Z,6.28
2023-09-24T09:55:10.907Z,6.45
2023-09-24T09:57:13.176Z,6.32
2023-09-24T09:59:15.276Z,6.45
2023-09-24T10:01:21.653Z,5.90
2023-09-24T10:03:24.556Z,6.13
2023-09-24T10:05:28.916Z,6.03
2023-09-24T10:07:31.066Z,6.38
2023-09-24T10:09:32.800Z,6.30
2023-09-24T10:11:34.473Z,5.57
2023-09-24T10:13:52.789Z,5.63
2023-09-24T10:15:54.726Z,6.70
2023-09-24T10:18:08.642Z,5.90
2023-09-24T10:20:19.394Z,6.28
2023-09-24T10:22:29.690Z,5.50
2023-09-24T10:24:37.546Z,6.70
2023-09-24T10:27:02.820Z,5.75
2023-09-24T10:29:05.240Z,5.90
2023-09-24T10:31:08.011Z,5.75
2023-09-24T10:33:13.521Z,6.18
2023-09-24T10:35:15.671Z,6.90
2023-09-24T10:37:18.087Z,6.00
2023-09-24T10:39:21.891Z,6.53
2023-09-24T10:41:23.652Z,6.82
2023-09-24T10:43:25.462Z,6.38
2023-09-24T10:45:28.657Z,6.22
2023-09-24T10:47:31.859Z,6.13
2023-09-24T10:49:34.060Z,6.95
2023-09-24T10:51:35.980Z,6.22
2023-09-24T10:53:39.863Z,6.32
2023-09-24T10:55:45.357Z,6.45
2023-09-24T10:57:54.633Z,6.50
2023-09-24T10:59:56.394Z,7.13
2023-09-24T11:01:58.299Z,6.80
2023-09-24T11:04:00.259Z,6.30
2023-09-24T11:06:03.345Z,6.40
2023-09-24T11:08:05.312Z,6.65
2023-09-24T11:10:09.611Z,5.25
2023-09-24T11:12:13.416Z,6.03
2023-09-24T11:14:23.854Z,6.60
2023-09-24T11:16:25.605Z,5.88
2023-09-24T11:18:30.113Z,5.47
2023-09-24T11:20:33.510Z,5.40
2023-09-24T11:22:35.824Z,6.07
2023-09-24T11:24:38.799Z,5.97
2023-09-24T11:26:42.920Z,5.57
2023-09-24T11:28:44.824Z,6.07
2023-09-24T11:30:47.458Z,6.38
2023-09-24T11:32:51.424Z,6.63
2023-09-24T11:35:12.175Z,6.50
2023-09-24T11:37:13.916Z,6.10
2023-09-24T11:39:16.177Z,5.32
2023-09-24T11:41:19.206Z,5.47
2023-09-24T11:43:21.968Z,6.50
2023-09-24T11:45:49.778Z,5.70
2023-09-24T11:47:52.435Z,6.22
2023-09-24T11:49:54.226Z,5.90
2023-09-24T11:51:56.533Z,5.40
2023-09-24T11:53:58.353Z,5.50
2023-09-24T11:56:00.644Z,6.05
2023-09-24T11:58:03.863Z,5.25
2023-09-24T12:00:07.083Z,6.05
2023-09-24T12:02:09.338Z,6.35
2023-09-24T12:04:11.269Z,5.90
2023-09-24T12:06:15.693Z,6.10
2023-09-24T12:08:19.444Z,6.15
2023-09-24T12:10:22.693Z,6.15
2023-09-24T12:12:24.717Z,6.15
2023-09-24T12:14:27.496Z,6.40
2023-09-24T12:16:29.309Z,5.78
2023-09-24T12:18:36.298Z,6.10
2023-09-24T12:20:42.429Z,5.40
2023-09-24T12:22:44.690Z,5.80
2023-09-24T12:24:46.567Z,6.75
2023-09-24T12:26:48.350Z,5.47
2023-09-24T12:28:50.188Z,6.30
2023-09-24T12:30:54.474Z,6.68
2023-09-24T12:32:58.341Z,5.85
2023-09-24T12:35:00.239Z,6.00
2023-09-24T12:37:02.169Z,6.13
2023-09-24T12:39:04.223Z,5.80
2023-09-24T12:41:06.002Z,6.18
2023-09-24T12:43:09.701Z,5.95
2023-09-24T12:45:12.256Z,5.78
2023-09-24T12:47:14.132Z,5.90
2023-09-24T12:49:18.345Z,5.38
2023-09-24T12:51:20.026Z,6.68
2023-09-24T12:53:25.622Z,6.07
2023-09-24T12:55:29.727Z,5.95
2023-09-24T12:57:32.561Z,6.25
2023-09-24T12:59:35.128Z,6.00
2023-09-24T13:01:36.896Z,6.80
2023-09-24T13:03:41.338Z,5.72
2023-09-24T13:05:43.395Z,6.40
2023-09-24T13:07:48.021Z,5.38
2023-09-24T13:09:54.540Z,6.30
2023-09-24T13:11:59.631Z,6.28
2023-09-24T13:14:01.950Z,6.28
2023-09-24T13:16:03.925Z,6.97
2023-09-24T13:18:06.418Z,6.30
2023-09-24T13:20:08.463Z,5.90
2023-09-24T13:22:10.598Z,6.85
2023-09-24T13:24:17.137Z,6.30
2023-09-24T13:26:18.954Z,6.85
2023-09-24T13:28:21.018Z,6.97
2023-09-24T13:30:25.310Z,7.40
2023-09-24T13:32:27.245Z,6.55
2023-09-24T13:34:29.598Z,8.27
2023-09-24T13:36:35.297Z,7.28
2023-09-24T13:38:37.189Z,6.05
2023-09-24T13:40:40.810Z,7.05
2023-09-24T13:42:42.803Z,7.18
2023-09-24T13:44:46.925Z,8.10
2023-09-24T13:46:53.324Z,8.00
2023-09-24T13:48:55.208Z,7.60
2023-09-24T13:50:57.536Z,7.63
2023-09-24T13:53:01.823Z,8.48
2023-09-24T13:55:03.712Z,7.72
2023-09-24T13:57:06.579Z,8.65
2023-09-24T13:59:08.406Z,8.00
2023-09-24T14:01:11.777Z,7.28
2023-09-24T14:03:14.017Z,7.88
2023-09-24T14:05:17.931Z,8.80
2023-09-24T14:07:22.180Z,14.80
2023-09-24T14:09:43.751Z,12.23
2023-09-24T14:12:08.941Z,10.65
2023-09-24T14:14:11.313Z,10.93
2023-09-24T14:16:14.135Z,12.05
2023-09-24T14:18:16.996Z,10.55
2023-09-24T14:20:19.446Z,11.15
2023-09-24T14:22:21.416Z,11.63
2023-09-24T14:24:23.242Z,10.40
2023-09-24T14:26:27.247Z,11.38
2023-09-24T14:28:32.641Z,13.15
2023-09-24T14:30:40.102Z,11.63
2023-09-24T14:32:41.831Z,10.40
2023-09-24T14:34:43.685Z,11.50
2023-09-24T14:36:46.972Z,12.07
2023-09-24T14:38:49.248Z,12.70
2023-09-24T14:40:51.619Z,14.13
2023-09-24T14:42:53.503Z,11.70
2023-09-24T14:44:55.301Z,11.82
2023-09-24T14:46:57.649Z,11.18
2023-09-24T14:48:59.483Z,9.93
2023-09-24T14:51:04.732Z,10.55
2023-09-24T14:53:08.040Z,12.65
2023-09-24T14:55:11.704Z,11.52
2023-09-24T14:57:13.537Z,13.65
2023-09-24T14:59:15.441Z,11.05
2023-09-24T15:01:18.975Z,9.40
2023-09-24T15:03:21.327Z,9.10
2023-09-24T15:05:23.647Z,8.73
2023-09-24T15:07:25.698Z,7.53
2023-09-24T15:09:27.570Z,8.48
2023-09-24T15:11:29.392Z,8.63
2023-09-24T15:13:32.540Z,8.95
2023-09-24T15:15:35.768Z,10.50
2023-09-24T15:17:37.687Z,10.05
2023-09-24T15:19:39.652Z,9.93
2023-09-24T15:21:41.539Z,9.13
2023-09-24T15:23:43.280Z,9.50
2023-09-24T15:25:46.593Z,9.38
2023-09-24T15:27:48.469Z,9.50
2023-09-24T15:29:51.529Z,9.38
2023-09-24T15:31:54.867Z,8.88
2023-09-24T15:33:59.110Z,9.05
2023-09-24T15:36:01.127Z,10.43
2023-09-24T15:38:07.689Z,10.43
2023-09-24T15:40:11.450Z,10.68
2023-09-24T15:42:13.351Z,10.15
2023-09-24T15:44:16.282Z,9.93
2023-09-24T15:46:18.426Z,9.50
2023-09-24T15:48:22.673Z,9.73
2023-09-24T15:50:25.449Z,9.57
2023-09-24T15:52:27.266Z,8.33
2023-09-24T15:54:30.275Z,9.20
2023-09-24T15:56:35.279Z,8.95
2023-09-24T15:58:38.310Z,9.13
2023-09-24T16:00:40.492Z,8.38
2023-09-24T16:02:42.334Z,9.52
2023-09-24T16:04:44.231Z,8.10
2023-09-24T16:06:46.026Z,7.65
2023-09-24T16:08:48.011Z,8.93
2023-09-24T16:10:52.970Z,8.57
2023-09-24T16:12:54.933Z,8.77
2023-09-24T16:14:57.166Z,8.18
2023-09-24T16:16:59.044Z,9.05
2023-09-24T16:19:01.039Z,8.68
2023-09-24T16:21:02.904Z,8.88
2023-09-24T16:23:04.821Z,8.77
2023-09-24T16:25:07.437Z,9.20
2023-09-24T16:27:10.531Z,9.27
2023-09-24T16:29:12.476Z,9.27
2023-09-24T16:31:14.274Z,9.05
2023-09-24T16:33:16.553Z,10.38
2023-09-24T16:35:18.801Z,10.05
2023-09-24T16:37:21.806Z,8.98
2023-09-24T16:39:24.829Z,9.60
2023-09-24T16:41:27.695Z,9.27
2023-09-24T16:43:29.402Z,9.38
2023-09-24T16:45:31.193Z,10.45
2023-09-24T16:47:34.596Z,9.77
2023-09-24T16:49:36.797Z,10.27
2023-09-24T16:51:39.875Z,10.30
2023-09-24T16:53:41.733Z,10.00
2023-09-24T16:55:43.525Z,10.52
2023-09-24T16:57:46.850Z,9.50
2023-09-24T16:59:48.935Z,9.48
2023-09-24T17:01:52.632Z,10.43
2023-09-24T17:03:55.232Z,10.55
2023-09-24T17:06:01.486Z,10.02
2023-09-24T17:08:04.360Z,10.05
2023-09-24T17:10:10.570Z,9.50
2023-09-24T17:12:12.439Z,9.73
2023-09-24T17:14:16.229Z,9.40
2023-09-24T17:16:21.064Z,8.75
2023-09-24T17:18:22.986Z,8.75
2023-09-24T17:20:26.833Z,7.95
2023-09-24T17:22:28.549Z,8.48
2023-09-24T17:24:33.070Z,8.57
2023-09-24T17:26:35.960Z,7.72
2023-09-24T17:28:38.323Z,8.80
2023-09-24T17:30:40.206Z,8.20
2023-09-24T17:32:43.160Z,8.27
2023-09-24T17:34:44.893Z,8.98
2023-09-24T17:36:46.615Z,8.32
2023-09-24T17:38:51.228Z,8.23
2023-09-24T17:40:53.547Z,8.68
2023-09-24T17:42:55.277Z,7.75
2023-09-24T17:44:57.131Z,7.93
2023-09-24T17:49:24.058Z,8.23
2023-09-24T17:51:26.039Z,8.10
2023-09-24T17:53:29.617Z,7.80
2023-09-24T17:57:34.599Z,8.32
2023-09-24T17:59:36.834Z,8.65
2023-09-24T18:01:39.118Z,8.32
2023-09-24T18:03:43.920Z,8.05
2023-09-24T18:05:45.988Z,8.23
2023-09-24T18:07:47.868Z,8.68
2023-09-24T18:09:49.771Z,7.97
2023-09-24T18:11:51.712Z,8.02
2023-09-24T18:13:57.427Z,7.70
2023-09-24T18:16:01.087Z,8.38
2023-09-24T18:18:05.540Z,7.97
2023-09-24T18:20:08.603Z,8.82
2023-09-24T18:22:11.368Z,8.25
2023-09-24T18:24:14.910Z,8.60
2023-09-24T18:28:18.727Z,8.50
2023-09-24T18:30:20.882Z,8.75
2023-09-24T18:32:22.618Z,8.95
2023-09-24T18:34:24.821Z,10.27
2023-09-24T18:36:26.950Z,8.95
2023-09-24T18:38:29.161Z,9.98
2023-09-24T18:40:31.376Z,9.73
2023-09-24T18:42:34.883Z,10.30
2023-09-24T18:46:39.025Z,10.05
2023-09-24T18:48:40.962Z,10.30
2023-09-24T18:50:43.413Z,11.07
2023-09-24T18:52:46.544Z,10.02
2023-09-24T18:54:48.233Z,10.02
2023-09-24T18:56:49.999Z,10.02
2023-09-24T18:58:54.571Z,10.35
2023-09-24T19:00:57.884Z,10.75
2023-09-24T19:02:59.788Z,11.10
2023-09-24T19:05:01.594Z,10.43
2023-09-24T19:07:07.319Z,9.98
2023-09-24T19:09:09.796Z,10.90
2023-09-24T19:11:11.749Z,9.68
2023-09-24T19:13:14.819Z,9.98
2023-09-24T19:15:17.194Z,9.45
2023-09-24T19:17:20.213Z,9.30
2023-09-24T19:19:22.173Z,9.48
2023-09-24T19:21:27.364Z,8.90
2023-09-24T19:23:30.535Z,9.00
2023-09-24T19:25:32.285Z,8.85
2023-09-24T19:27:34.172Z,9.88
2023-09-24T19:29:36.013Z,9.10
2023-09-24T19:31:39.702Z,8.75
2023-09-24T19:33:42.217Z,7.95
2023-09-24T19:35:44.192Z,8.57
2023-09-24T19:37:46.087Z,9.20
2023-09-24T19:39:49.943Z,9.05
2023-09-24T19:41:51.820Z,8.90
2023-09-24T19:43:55.107Z,8.48
2023-09-24T19:45:59.585Z,8.50
2023-09-24T19:48:01.545Z,9.55
2023-09-24T19:50:06.031Z,9.10
2023-09-24T19:52:08.073Z,9.10
2023-09-24T19:54:10.520Z,9.27
2023-09-24T19:56:18.626Z,7.63
2023-09-24T19:58:23.016Z,8.85
2023-09-24T20:00:26.782Z,8.85
2023-09-24T20:02:29.084Z,9.10
2023-09-24T20:04:30.874Z,9.73
2023-09-24T20:06:32.859Z,9.48
2023-09-24T20:08:36.337Z,9.95
2023-09-24T20:10:38.087Z,10.65
2023-09-24T20:12:39.933Z,9.77
2023-09-24T20:14:41.686Z,9.57
2023-09-24T20:16:43.752Z,10.68
2023-09-24T20:18:45.667Z,10.88
2023-09-24T20:20:48.501Z,10.85
2023-09-24T20:22:50.455Z,10.20
2023-09-24T20:24:56.793Z,10.00
2023-09-24T20:26:58.630Z,10.05
2023-09-24T20:29:01.946Z,11.32
2023-09-24T20:31:05.469Z,10.48
2023-09-24T20:33:21.294Z,10.60
2023-09-24T20:35:28.799Z,9.73
2023-09-24T20:37:30.512Z,10.90
2023-09-24T20:39:34.257Z,10.30
2023-09-24T20:41:39.944Z,10.07
2023-09-24T20:43:45.041Z,10.38
2023-09-24T20:46:08.569Z,10.93
2023-09-24T20:48:10.937Z,10.10
2023-09-24T20:50:14.406Z,10.95
2023-09-24T20:52:16.365Z,9.60
2023-09-24T20:54:18.129Z,10.60
2023-09-24T20:56:20.424Z,9.88
2023-09-24T20:58:22.090Z,10.45
2023-09-24T21:00:30.987Z,9.30
2023-09-24T21:02:32.954Z,10.60
2023-09-24T21:04:37.414Z,10.27
2023-09-24T21:06:39.380Z,9.70
2023-09-24T21:08:41.290Z,9.80
2023-09-24T21:10:43.068Z,9.32
2023-09-24T21:12:45.997Z,9.43
2023-09-24T21:14:47.682Z,8.10
2023-09-24T21:16:51.130Z,8.50
2023-09-24T21:18:54.088Z,9.10
2023-09-24T21:20:56.244Z,8.32
2023-09-24T21:22:58.174Z,7.57
2023-09-24T21:24:59.988Z,7.40
2023-09-24T21:27:02.208Z,6.97
2023-09-24T21:29:03.896Z,7.22
2023-09-24T21:31:07.756Z,7.38
2023-09-24T21:33:09.566Z,7.22
2023-09-24T21:35:11.660Z,6.90
2023-09-24T21:37:16.955Z,7.57
2023-09-24T21:39:18.700Z,7.07
2023-09-24T21:41:20.597Z,6.70
2023-09-24T21:43:25.934Z,6.57
2023-09-24T21:45:27.862Z,6.20
2023-09-24T21:47:33.391Z,6.75
2023-09-24T21:49:35.276Z,6.88
2023-09-24T21:51:37.096Z,6.78
2023-09-24T21:53:39.447Z,6.22
2023-09-24T21:55:41.593Z,6.90
2023-09-24T21:57:43.315Z,7.05
2023-09-24T21:59:45.528Z,6.78
2023-09-24T22:01:55.568Z,7.40
2023-09-24T22:03:59.198Z,7.25
2023-09-24T22:06:01.984Z,6.60
2023-09-24T22:08:04.518Z,6.60
2023-09-24T22:10:07.558Z,6.20
2023-09-24T22:12:09.722Z,5.30
2023-09-24T22:14:31.470Z,5.82
2023-09-24T22:16:33.420Z,6.05
2023-09-24T22:18:35.783Z,5.30
2023-09-24T22:20:37.819Z,4.85
2023-09-24T22:22:39.634Z,5.20
2023-09-24T22:24:41.451Z,4.68
2023-09-24T22:26:43.408Z,4.75
2023-09-24T22:28:45.279Z,4.88
2023-09-24T22:30:47.044Z,4.32
2023-09-24T22:32:48.763Z,4.00
2023-09-24T22:34:50.760Z,5.57
2023-09-24T22:36:52.445Z,4.90
2023-09-24T22:38:54.325Z,4.60
2023-09-24T22:40:56.091Z,4.63
2023-09-24T22:42:58.755Z,4.38
2023-09-24T22:45:08.207Z,4.40
2023-09-24T22:47:10.267Z,4.75
2023-09-24T22:49:12.364Z,5.00
2023-09-24T22:51:14.063Z,4.80
2023-09-24T22:53:15.769Z,4.75
2023-09-24T22:55:17.645Z,4.63
2023-09-24T22:57:19.474Z,5.53
2023-09-24T22:59:21.165Z,4.68
2023-09-24T23:01:22.837Z,4.60
2023-09-24T23:03:24.737Z,4.60
2023-09-24T23:05:26.566Z,4.75
2023-09-24T23:07:28.297Z,4.55
2023-09-24T23:09:30.068Z,4.30
2023-09-24T23:11:36.054Z,4.90
2023-09-24T23:13:38.994Z,4.82
2023-09-24T23:15:41.379Z,4.47
2023-09-24T23:17:43.458Z,5.03
2023-09-24T23:19:45.192Z,4.20
2023-09-24T23:21:47.907Z,4.70
2023-09-24T23:23:49.580Z,4.60
2023-09-24T23:25:52.646Z,4.90
2023-09-24T23:27:54.462Z,4.55
2023-09-24T23:29:57.246Z,4.90
2023-09-24T23:31:59.210Z,4.32
2023-09-24T23:34:00.959Z,4.60
2023-09-24T23:36:04.948Z,4.78
2023-09-24T23:38:07.739Z,4.80
2023-09-24T23:40:10.388Z,4.38
2023-09-24T23:42:14.378Z,4.97
2023-09-24T23:44:16.273Z,4.55
2023-09-24T23:46:18.796Z,4.40
2023-09-24T23:48:20.575Z,4.95
2023-09-24T23:50:22.823Z,4.75
2023-09-24T23:52:24.714Z,5.45
2023-09-24T23:54:26.639Z,4.43
2023-09-24T23:56:28.506Z,5.10
2023-09-24T23:58:30.371Z,4.95
